AFX14 EKCH-EDDM
Flight info
| Callsign | AFX14 |
|---|---|
| Flight time | 1h 16m |
| Altitude | 37000 |
| Route | SALLO M44 KOGIM DCT MAREM/N0454F340 DCT VESUB T106 TUSTO T108 LANDU LANDU2A |
| Aircraft | MD11/H-SDE1E2E3FGHIJ2J3J4J5M1RWXY/LB1D1 |
Departure
| Time | 2026-04-30 20:02 |
|---|---|
| Airport | Copenhagen Kastrup Airport (EKCH) |
Arrival
| Time | 2026-04-30 21:18 |
|---|---|
| Airport | Munich Airport (EDDM) |
| Time | Latitude | Longitude | Altitude | Speed | Heading |
|---|---|---|---|---|---|
| 2026-04-30 19:13 | 55.62805 | 12.66240 | 25 ft | 0 kts | 311° |
| 2026-04-30 19:50 | 55.62799 | 12.66251 | 27 ft | 4 kts | 310° |
| 2026-04-30 19:50 | 55.62783 | 12.66289 | 25 ft | 4 kts | 301° |
| 2026-04-30 19:51 | 55.62772 | 12.66331 | 25 ft | 4 kts | 277° |
| 2026-04-30 19:51 | 55.62775 | 12.66368 | 23 ft | 2 kts | 223° |
| 2026-04-30 19:51 | 55.62776 | 12.66370 | 23 ft | 4 kts | 222° |
| 2026-04-30 19:55 | 55.62751 | 12.66329 | 26 ft | 16 kts | 222° |
| 2026-04-30 19:56 | 55.62662 | 12.66191 | 26 ft | 16 kts | 215° |
| 2026-04-30 19:56 | 55.62556 | 12.66147 | 28 ft | 10 kts | 190° |
| 2026-04-30 19:56 | 55.62495 | 12.66083 | 27 ft | 17 kts | 216° |
| 2026-04-30 19:56 | 55.62416 | 12.65840 | 24 ft | 14 kts | 279° |
| 2026-04-30 19:57 | 55.62441 | 12.65674 | 28 ft | 20 kts | 268° |
| 2026-04-30 19:57 | 55.62438 | 12.65351 | 27 ft | 25 kts | 264° |
| 2026-04-30 19:57 | 55.62421 | 12.65194 | 28 ft | 1 kts | 215° |
| 2026-04-30 19:57 | 55.62385 | 12.65194 | 29 ft | 18 kts | 176° |
| 2026-04-30 19:58 | 55.62251 | 12.65187 | 30 ft | 19 kts | 191° |
| 2026-04-30 19:58 | 55.62143 | 12.65099 | 32 ft | 16 kts | 209° |
| 2026-04-30 19:58 | 55.62041 | 12.64996 | 28 ft | 18 kts | 206° |
| 2026-04-30 19:58 | 55.61942 | 12.64875 | 30 ft | 23 kts | 212° |
| 2026-04-30 19:59 | 55.61763 | 12.64672 | 27 ft | 37 kts | 213° |
| 2026-04-30 19:59 | 55.61508 | 12.64369 | 31 ft | 51 kts | 214° |
| 2026-04-30 19:59 | 55.60990 | 12.63776 | 26 ft | 36 kts | 213° |
| 2026-04-30 20:00 | 55.60787 | 12.63553 | 28 ft | 33 kts | 212° |
| 2026-04-30 20:00 | 55.60608 | 12.63325 | 28 ft | 30 kts | 220° |
| 2026-04-30 20:00 | 55.60471 | 12.63129 | 32 ft | 16 kts | 203° |
| 2026-04-30 20:00 | 55.60420 | 12.63149 | 33 ft | 5 kts | 141° |
| 2026-04-30 20:01 | 55.60360 | 12.63273 | 36 ft | 16 kts | 114° |
| 2026-04-30 20:01 | 55.60413 | 12.63464 | 33 ft | 41 kts | 41° |
| 2026-04-30 20:01 | 55.60906 | 12.64223 | 31 ft | 142 kts | 41° |
| 2026-04-30 20:02 | 55.62860 | 12.66986 | 1567 ft | 167 kts | 37° |
| 2026-04-30 20:02 | 55.63735 | 12.68282 | 2877 ft | 167 kts | 37° |
| 2026-04-30 20:03 | 55.65751 | 12.71329 | 3891 ft | 225 kts | 36° |
| 2026-04-30 20:03 | 55.67003 | 12.73204 | 4036 ft | 245 kts | 37° |
| 2026-04-30 20:03 | 55.68328 | 12.75209 | 4186 ft | 254 kts | 38° |
| 2026-04-30 20:03 | 55.69546 | 12.77521 | 4469 ft | 261 kts | 53° |
| 2026-04-30 20:04 | 55.70254 | 12.80475 | 5190 ft | 265 kts | 76° |
| 2026-04-30 20:04 | 55.70219 | 12.83786 | 5890 ft | 280 kts | 100° |
| 2026-04-30 20:04 | 55.69260 | 12.86763 | 6567 ft | 283 kts | 133° |
| 2026-04-30 20:05 | 55.65750 | 12.90056 | 8491 ft | 293 kts | 159° |
| 2026-04-30 20:05 | 55.63760 | 12.90998 | 9384 ft | 299 kts | 169° |
| 2026-04-30 20:05 | 55.59451 | 12.90389 | 10334 ft | 343 kts | 201° |
| 2026-04-30 20:06 | 55.57350 | 12.88204 | 10484 ft | 370 kts | 220° |
| 2026-04-30 20:06 | 55.55456 | 12.85033 | 11169 ft | 378 kts | 227° |
| 2026-04-30 20:06 | 55.53657 | 12.81597 | 11999 ft | 384 kts | 229° |
| 2026-04-30 20:06 | 55.51845 | 12.78084 | 12798 ft | 390 kts | 227° |
| 2026-04-30 20:07 | 55.49808 | 12.74888 | 13595 ft | 395 kts | 214° |
| 2026-04-30 20:07 | 55.48179 | 12.73301 | 14130 ft | 398 kts | 201° |
| 2026-04-30 20:07 | 55.42744 | 12.72871 | 15627 ft | 399 kts | 160° |
| 2026-04-30 20:08 | 55.40194 | 12.74622 | 16315 ft | 400 kts | 151° |
| 2026-04-30 20:08 | 55.37688 | 12.76816 | 17039 ft | 405 kts | 148° |
| 2026-04-30 20:08 | 55.35177 | 12.79108 | 17784 ft | 409 kts | 149° |
| 2026-04-30 20:08 | 55.32709 | 12.81615 | 18441 ft | 410 kts | 141° |
| 2026-04-30 20:09 | 55.30402 | 12.84581 | 19137 ft | 413 kts | 137° |
| 2026-04-30 20:09 | 55.28162 | 12.87758 | 19811 ft | 416 kts | 136° |
| 2026-04-30 20:09 | 55.23657 | 12.94302 | 21096 ft | 425 kts | 136° |
| 2026-04-30 20:10 | 55.19026 | 13.00902 | 22313 ft | 434 kts | 137° |
| 2026-04-30 20:10 | 55.16662 | 13.04222 | 22905 ft | 437 kts | 137° |
| 2026-04-30 20:10 | 55.14253 | 13.07591 | 23149 ft | 452 kts | 137° |
| 2026-04-30 20:11 | 55.09174 | 13.14676 | 23417 ft | 482 kts | 137° |
| 2026-04-30 20:11 | 55.06513 | 13.18373 | 23531 ft | 496 kts | 137° |
| 2026-04-30 20:11 | 55.03788 | 13.22150 | 23904 ft | 503 kts | 138° |
| 2026-04-30 20:12 | 54.98258 | 13.29783 | 24932 ft | 511 kts | 138° |
| 2026-04-30 20:12 | 54.95455 | 13.33632 | 25393 ft | 515 kts | 139° |
| 2026-04-30 20:12 | 54.92518 | 13.37197 | 25887 ft | 519 kts | 145° |
| 2026-04-30 20:13 | 54.89281 | 13.40119 | 26161 ft | 529 kts | 153° |
| 2026-04-30 20:13 | 54.85797 | 13.42287 | 26463 ft | 535 kts | 161° |
| 2026-04-30 20:13 | 54.82168 | 13.43653 | 27037 ft | 533 kts | 169° |
| 2026-04-30 20:13 | 54.78476 | 13.44244 | 27501 ft | 535 kts | 175° |
| 2026-04-30 20:14 | 54.74748 | 13.44463 | 27881 ft | 535 kts | 176° |
| 2026-04-30 20:14 | 54.71038 | 13.44765 | 28373 ft | 532 kts | 174° |
| 2026-04-30 20:14 | 54.67356 | 13.45305 | 28785 ft | 531 kts | 171° |
| 2026-04-30 20:14 | 54.63697 | 13.46072 | 29219 ft | 529 kts | 169° |
| 2026-04-30 20:15 | 54.60058 | 13.46984 | 29630 ft | 528 kts | 168° |
| 2026-04-30 20:15 | 54.56432 | 13.47965 | 30015 ft | 527 kts | 168° |
| 2026-04-30 20:15 | 54.52816 | 13.48969 | 30404 ft | 526 kts | 168° |
| 2026-04-30 20:15 | 54.49203 | 13.49954 | 30777 ft | 525 kts | 168° |
| 2026-04-30 20:16 | 54.45591 | 13.50905 | 31152 ft | 525 kts | 168° |
| 2026-04-30 20:16 | 54.41988 | 13.51829 | 31538 ft | 523 kts | 168° |
| 2026-04-30 20:16 | 54.38389 | 13.52740 | 31895 ft | 522 kts | 168° |
| 2026-04-30 20:16 | 54.34845 | 13.53632 | 32236 ft | 521 kts | 168° |
| 2026-04-30 20:17 | 54.31240 | 13.54368 | 32550 ft | 522 kts | 172° |
| 2026-04-30 20:17 | 54.27561 | 13.54718 | 32864 ft | 524 kts | 175° |
| 2026-04-30 20:17 | 54.23964 | 13.54832 | 33183 ft | 523 kts | 177° |
| 2026-04-30 20:17 | 54.20327 | 13.54854 | 33491 ft | 523 kts | 177° |
| 2026-04-30 20:18 | 54.16687 | 13.54864 | 33798 ft | 522 kts | 177° |
| 2026-04-30 20:18 | 54.13067 | 13.54895 | 34106 ft | 521 kts | 177° |
| 2026-04-30 20:18 | 54.09450 | 13.54954 | 34396 ft | 520 kts | 177° |
| 2026-04-30 20:18 | 54.05833 | 13.55032 | 34658 ft | 519 kts | 176° |
| 2026-04-30 20:19 | 54.02222 | 13.55122 | 34929 ft | 519 kts | 176° |
| 2026-04-30 20:19 | 53.98612 | 13.55217 | 35179 ft | 518 kts | 176° |
| 2026-04-30 20:19 | 53.95004 | 13.55312 | 35397 ft | 519 kts | 176° |
| 2026-04-30 20:19 | 53.91393 | 13.55407 | 35643 ft | 519 kts | 176° |
| 2026-04-30 20:20 | 53.87787 | 13.55502 | 35849 ft | 519 kts | 176° |
| 2026-04-30 20:20 | 53.84176 | 13.55591 | 36099 ft | 518 kts | 176° |
| 2026-04-30 20:20 | 53.80573 | 13.55679 | 36335 ft | 518 kts | 176° |
| 2026-04-30 20:20 | 53.76969 | 13.55770 | 36528 ft | 518 kts | 176° |
| 2026-04-30 20:21 | 53.73364 | 13.55859 | 36766 ft | 517 kts | 176° |
| 2026-04-30 20:21 | 53.69769 | 13.55952 | 36905 ft | 518 kts | 176° |
| 2026-04-30 20:21 | 53.66160 | 13.56047 | 36954 ft | 519 kts | 176° |
| 2026-04-30 20:22 | 53.59026 | 13.56223 | 36958 ft | 508 kts | 176° |
| 2026-04-30 20:22 | 53.51970 | 13.56399 | 36960 ft | 507 kts | 176° |
| 2026-04-30 20:23 | 53.44905 | 13.56575 | 36961 ft | 507 kts | 176° |
| 2026-04-30 20:23 | 53.37847 | 13.56747 | 36960 ft | 507 kts | 176° |
| 2026-04-30 20:24 | 53.30798 | 13.56916 | 36960 ft | 507 kts | 176° |
| 2026-04-30 20:24 | 53.23746 | 13.57090 | 36961 ft | 506 kts | 176° |
| 2026-04-30 20:25 | 53.13181 | 13.57354 | 36961 ft | 507 kts | 176° |
| 2026-04-30 20:26 | 53.02615 | 13.57606 | 36960 ft | 506 kts | 176° |
| 2026-04-30 20:26 | 52.92049 | 13.57860 | 36961 ft | 506 kts | 176° |
| 2026-04-30 20:27 | 52.78035 | 13.58198 | 36961 ft | 506 kts | 175° |
| 2026-04-30 20:28 | 52.63943 | 13.58537 | 36960 ft | 506 kts | 175° |
| 2026-04-30 20:30 | 52.46345 | 13.58949 | 36961 ft | 506 kts | 175° |
| 2026-04-30 20:31 | 52.25241 | 13.59448 | 36961 ft | 506 kts | 175° |
| 2026-04-30 20:32 | 52.07655 | 13.59856 | 36960 ft | 505 kts | 175° |
| 2026-04-30 20:33 | 51.97111 | 13.60103 | 36961 ft | 505 kts | 174° |
| 2026-04-30 20:34 | 51.86563 | 13.60348 | 36961 ft | 505 kts | 174° |
| 2026-04-30 20:35 | 51.76024 | 13.60591 | 36961 ft | 504 kts | 174° |
| 2026-04-30 20:35 | 51.65551 | 13.60826 | 36961 ft | 504 kts | 174° |
| 2026-04-30 20:36 | 51.58541 | 13.60984 | 36960 ft | 503 kts | 174° |
| 2026-04-30 20:37 | 51.48035 | 13.61223 | 36962 ft | 504 kts | 175° |
| 2026-04-30 20:37 | 51.41023 | 13.61386 | 36961 ft | 503 kts | 175° |
| 2026-04-30 20:38 | 51.34023 | 13.61541 | 36963 ft | 503 kts | 175° |
| 2026-04-30 20:38 | 51.27030 | 13.61697 | 36961 ft | 503 kts | 175° |
| 2026-04-30 20:39 | 51.16530 | 13.61933 | 36960 ft | 503 kts | 174° |
| 2026-04-30 20:40 | 51.06021 | 13.62166 | 36960 ft | 504 kts | 174° |
| 2026-04-30 20:40 | 50.99013 | 13.62320 | 36963 ft | 504 kts | 174° |
| 2026-04-30 20:41 | 50.88501 | 13.62554 | 36961 ft | 504 kts | 174° |
| 2026-04-30 20:41 | 50.81488 | 13.62709 | 36961 ft | 504 kts | 174° |
| 2026-04-30 20:42 | 50.74470 | 13.62860 | 36961 ft | 505 kts | 175° |
| 2026-04-30 20:42 | 50.67478 | 13.61548 | 36963 ft | 513 kts | 192° |
| 2026-04-30 20:43 | 50.64050 | 13.59906 | 36960 ft | 515 kts | 196° |
| 2026-04-30 20:43 | 50.57281 | 13.56155 | 36961 ft | 516 kts | 197° |
| 2026-04-30 20:44 | 50.47070 | 13.50777 | 36960 ft | 516 kts | 195° |
| 2026-04-30 20:45 | 50.33373 | 13.43980 | 36960 ft | 516 kts | 195° |
| 2026-04-30 20:45 | 50.26527 | 13.40596 | 36964 ft | 516 kts | 195° |
| 2026-04-30 20:46 | 50.12895 | 13.33874 | 36961 ft | 516 kts | 195° |
| 2026-04-30 20:47 | 50.02620 | 13.28836 | 36962 ft | 516 kts | 195° |
| 2026-04-30 20:48 | 49.92353 | 13.23821 | 36961 ft | 515 kts | 195° |
| 2026-04-30 20:48 | 49.85512 | 13.20514 | 36962 ft | 515 kts | 195° |
| 2026-04-30 20:49 | 49.78661 | 13.17213 | 36961 ft | 516 kts | 195° |
| 2026-04-30 20:50 | 49.68392 | 13.12249 | 36960 ft | 515 kts | 195° |
| 2026-04-30 20:50 | 49.61535 | 13.08955 | 36451 ft | 523 kts | 195° |
| 2026-04-30 20:50 | 49.58073 | 13.07296 | 35665 ft | 518 kts | 194° |
| 2026-04-30 20:51 | 49.54628 | 13.05642 | 34869 ft | 520 kts | 194° |
| 2026-04-30 20:51 | 49.47653 | 13.02305 | 33287 ft | 531 kts | 193° |
| 2026-04-30 20:51 | 49.44108 | 13.00615 | 32493 ft | 535 kts | 194° |
| 2026-04-30 20:52 | 49.40577 | 12.98764 | 31701 ft | 538 kts | 198° |
| 2026-04-30 20:52 | 49.37120 | 12.96536 | 30907 ft | 540 kts | 202° |
| 2026-04-30 20:52 | 49.30369 | 12.91558 | 29335 ft | 534 kts | 204° |
| 2026-04-30 20:53 | 49.27057 | 12.89045 | 28514 ft | 528 kts | 204° |
| 2026-04-30 20:53 | 49.24880 | 12.87406 | 27995 ft | 524 kts | 204° |
| 2026-04-30 20:53 | 49.21624 | 12.84986 | 27205 ft | 517 kts | 203° |
| 2026-04-30 20:54 | 49.14201 | 12.79572 | 25349 ft | 501 kts | 203° |
| 2026-04-30 20:54 | 49.11067 | 12.77307 | 24561 ft | 496 kts | 203° |
| 2026-04-30 20:54 | 49.07966 | 12.75072 | 23774 ft | 490 kts | 203° |
| 2026-04-30 20:55 | 49.01888 | 12.70705 | 22188 ft | 477 kts | 203° |
| 2026-04-30 20:55 | 48.99870 | 12.69258 | 21652 ft | 472 kts | 203° |
| 2026-04-30 20:55 | 48.96925 | 12.67146 | 20857 ft | 465 kts | 203° |
| 2026-04-30 20:56 | 48.91157 | 12.63013 | 19272 ft | 451 kts | 204° |
| 2026-04-30 20:56 | 48.88342 | 12.61004 | 18484 ft | 444 kts | 204° |
| 2026-04-30 20:56 | 48.82829 | 12.57076 | 16893 ft | 430 kts | 204° |
| 2026-04-30 20:57 | 48.80148 | 12.55165 | 16469 ft | 422 kts | 204° |
| 2026-04-30 20:57 | 48.77495 | 12.53302 | 16098 ft | 419 kts | 202° |
| 2026-04-30 20:57 | 48.74806 | 12.51650 | 15715 ft | 415 kts | 199° |
| 2026-04-30 20:58 | 48.69437 | 12.48723 | 15433 ft | 411 kts | 198° |
| 2026-04-30 20:58 | 48.66777 | 12.47311 | 15341 ft | 410 kts | 198° |
| 2026-04-30 20:58 | 48.64147 | 12.45592 | 14591 ft | 412 kts | 209° |
| 2026-04-30 20:58 | 48.61930 | 12.42944 | 13878 ft | 403 kts | 229° |
| 2026-04-30 20:59 | 48.59858 | 12.35424 | 13171 ft | 389 kts | 264° |
| 2026-04-30 20:59 | 48.59577 | 12.31374 | 13053 ft | 387 kts | 268° |
| 2026-04-30 21:00 | 48.59314 | 12.23292 | 12889 ft | 384 kts | 270° |
| 2026-04-30 21:00 | 48.59124 | 12.15218 | 12889 ft | 385 kts | 270° |
| 2026-04-30 21:01 | 48.58873 | 12.07146 | 12892 ft | 385 kts | 269° |
| 2026-04-30 21:01 | 48.58731 | 12.03110 | 12892 ft | 385 kts | 269° |
| 2026-04-30 21:01 | 48.58088 | 11.95089 | 12894 ft | 387 kts | 257° |
| 2026-04-30 21:02 | 48.57412 | 11.91147 | 12895 ft | 388 kts | 257° |
| 2026-04-30 21:02 | 48.56765 | 11.87203 | 12894 ft | 387 kts | 258° |
| 2026-04-30 21:02 | 48.56125 | 11.83256 | 12891 ft | 387 kts | 258° |
| 2026-04-30 21:02 | 48.55486 | 11.79304 | 12892 ft | 387 kts | 258° |
| 2026-04-30 21:03 | 48.54850 | 11.75356 | 12894 ft | 387 kts | 258° |
| 2026-04-30 21:03 | 48.54213 | 11.71409 | 12893 ft | 387 kts | 258° |
| 2026-04-30 21:03 | 48.53576 | 11.67467 | 12887 ft | 387 kts | 258° |
| 2026-04-30 21:03 | 48.52937 | 11.63516 | 12894 ft | 387 kts | 258° |
| 2026-04-30 21:04 | 48.52297 | 11.59567 | 12889 ft | 388 kts | 258° |
| 2026-04-30 21:04 | 48.51656 | 11.55598 | 12894 ft | 390 kts | 258° |
| 2026-04-30 21:04 | 48.50385 | 11.47675 | 12490 ft | 392 kts | 258° |
| 2026-04-30 21:05 | 48.49750 | 11.43705 | 11987 ft | 387 kts | 258° |
| 2026-04-30 21:05 | 48.49128 | 11.39779 | 11487 ft | 384 kts | 258° |
| 2026-04-30 21:05 | 48.48517 | 11.35877 | 10985 ft | 381 kts | 258° |
| 2026-04-30 21:05 | 48.47922 | 11.32009 | 10483 ft | 377 kts | 258° |
| 2026-04-30 21:06 | 48.47343 | 11.28188 | 9986 ft | 373 kts | 257° |
| 2026-04-30 21:06 | 48.46790 | 11.24444 | 9485 ft | 359 kts | 258° |
| 2026-04-30 21:06 | 48.46267 | 11.20837 | 8985 ft | 346 kts | 258° |
| 2026-04-30 21:06 | 48.45729 | 11.17366 | 8473 ft | 334 kts | 250° |
| 2026-04-30 21:07 | 48.44659 | 11.14359 | 7984 ft | 319 kts | 232° |
| 2026-04-30 21:07 | 48.43322 | 11.11854 | 7467 ft | 296 kts | 227° |
| 2026-04-30 21:07 | 48.42024 | 11.09559 | 6965 ft | 280 kts | 226° |
| 2026-04-30 21:07 | 48.40764 | 11.07429 | 6451 ft | 265 kts | 217° |
| 2026-04-30 21:08 | 48.39232 | 11.06189 | 6031 ft | 236 kts | 187° |
| 2026-04-30 21:08 | 48.37689 | 11.06291 | 5663 ft | 217 kts | 154° |
| 2026-04-30 21:08 | 48.36523 | 11.07573 | 5315 ft | 206 kts | 122° |
| 2026-04-30 21:08 | 48.35946 | 11.09509 | 5011 ft | 203 kts | 106° |
| 2026-04-30 21:09 | 48.35524 | 11.11530 | 4918 ft | 203 kts | 106° |
| 2026-04-30 21:09 | 48.35104 | 11.13558 | 4899 ft | 203 kts | 106° |
| 2026-04-30 21:09 | 48.34681 | 11.15588 | 4920 ft | 199 kts | 106° |
| 2026-04-30 21:09 | 48.34262 | 11.17573 | 4884 ft | 199 kts | 106° |
| 2026-04-30 21:10 | 48.33847 | 11.19562 | 4892 ft | 199 kts | 106° |
| 2026-04-30 21:10 | 48.33436 | 11.21548 | 4888 ft | 199 kts | 106° |
| 2026-04-30 21:10 | 48.33215 | 11.23583 | 4883 ft | 197 kts | 89° |
| 2026-04-30 21:10 | 48.33306 | 11.25640 | 4896 ft | 198 kts | 86° |
| 2026-04-30 21:11 | 48.33413 | 11.27694 | 4889 ft | 198 kts | 86° |
| 2026-04-30 21:11 | 48.33521 | 11.29757 | 4885 ft | 198 kts | 86° |
| 2026-04-30 21:11 | 48.33634 | 11.31824 | 4886 ft | 198 kts | 86° |
| 2026-04-30 21:11 | 48.33745 | 11.33891 | 4888 ft | 199 kts | 85° |
| 2026-04-30 21:12 | 48.33854 | 11.35962 | 4888 ft | 198 kts | 86° |
| 2026-04-30 21:12 | 48.33958 | 11.38030 | 4893 ft | 199 kts | 86° |
| 2026-04-30 21:12 | 48.34065 | 11.40098 | 4891 ft | 199 kts | 86° |
| 2026-04-30 21:12 | 48.34172 | 11.42158 | 4887 ft | 198 kts | 86° |
| 2026-04-30 21:13 | 48.34280 | 11.44226 | 4891 ft | 198 kts | 86° |
| 2026-04-30 21:13 | 48.34385 | 11.46289 | 4900 ft | 198 kts | 86° |
| 2026-04-30 21:13 | 48.34496 | 11.48354 | 4893 ft | 198 kts | 86° |
| 2026-04-30 21:13 | 48.34602 | 11.50379 | 4897 ft | 197 kts | 86° |
| 2026-04-30 21:14 | 48.34705 | 11.52445 | 4900 ft | 199 kts | 86° |
| 2026-04-30 21:14 | 48.34810 | 11.54532 | 4622 ft | 198 kts | 85° |
| 2026-04-30 21:14 | 48.34914 | 11.56554 | 4249 ft | 196 kts | 87° |
| 2026-04-30 21:14 | 48.34950 | 11.58624 | 3894 ft | 196 kts | 89° |
| 2026-04-30 21:15 | 48.35017 | 11.60640 | 3616 ft | 196 kts | 85° |
| 2026-04-30 21:15 | 48.35168 | 11.62575 | 3340 ft | 180 kts | 83° |
| 2026-04-30 21:15 | 48.35324 | 11.64405 | 3106 ft | 175 kts | 84° |
| 2026-04-30 21:15 | 48.35465 | 11.66219 | 2869 ft | 174 kts | 84° |
| 2026-04-30 21:16 | 48.35596 | 11.67910 | 2601 ft | 155 kts | 83° |
| 2026-04-30 21:16 | 48.35721 | 11.69523 | 2442 ft | 156 kts | 83° |
| 2026-04-30 21:16 | 48.35845 | 11.71139 | 2256 ft | 156 kts | 83° |
| 2026-04-30 21:16 | 48.35969 | 11.72753 | 2046 ft | 155 kts | 83° |
| 2026-04-30 21:17 | 48.36106 | 11.74369 | 1798 ft | 157 kts | 82° |
| 2026-04-30 21:17 | 48.36224 | 11.75987 | 1618 ft | 153 kts | 84° |
| 2026-04-30 21:17 | 48.36344 | 11.77541 | 1488 ft | 140 kts | 82° |
| 2026-04-30 21:17 | 48.36439 | 11.78784 | 1487 ft | 97 kts | 83° |
| 2026-04-30 21:18 | 48.36492 | 11.79603 | 1484 ft | 66 kts | 82° |
| 2026-04-30 21:18 | 48.36455 | 11.80181 | 1493 ft | 48 kts | 110° |
| 2026-04-30 21:18 | 48.36352 | 11.80506 | 1478 ft | 21 kts | 121° |
| 2026-04-30 21:18 | 48.36241 | 11.80575 | 1490 ft | 19 kts | 182° |
| 2026-04-30 21:19 | 48.36175 | 11.80500 | 1493 ft | 8 kts | 239° |
| 2026-04-30 21:19 | 48.36167 | 11.80419 | 1490 ft | 20 kts | 273° |
| 2026-04-30 21:19 | 48.36147 | 11.80036 | 1493 ft | 39 kts | 266° |
| 2026-04-30 21:19 | 48.36120 | 11.79648 | 1482 ft | 35 kts | 263° |
| 2026-04-30 21:20 | 48.36071 | 11.79485 | 1484 ft | 3 kts | 182° |
| 2026-04-30 21:20 | 48.36015 | 11.79493 | 1479 ft | 16 kts | 171° |
| 2026-04-30 21:20 | 48.35920 | 11.79492 | 1485 ft | 10 kts | 204° |
| 2026-04-30 21:20 | 48.35861 | 11.79416 | 1480 ft | 10 kts | 215° |
| 2026-04-30 21:21 | 48.35799 | 11.79400 | 1484 ft | 9 kts | 179° |
| 2026-04-30 21:21 | 48.35739 | 11.79409 | 1493 ft | 8 kts | 171° |
| 2026-04-30 21:21 | 48.35636 | 11.79421 | 1493 ft | 2 kts | 188° |
| 2026-04-30 21:22 | 48.35602 | 11.79326 | 1479 ft | 10 kts | 254° |
| 2026-04-30 21:22 | 48.35597 | 11.79279 | 1493 ft | 4 kts | 261° |
| 2026-04-30 21:23 | 48.35596 | 11.79280 | 1493 ft | 1 kts | 261° |